sensor_id;sensor_type;location;lat;lon;timestamp;temperature;humidity
67557;DHT22;54387;53.526;49.300;2023-02-15T00:01:21;-5.80;62.20
67557;DHT22;54387;53.526;49.300;2023-02-15T00:03:47;-5.80;62.20
67557;DHT22;54387;53.526;49.300;2023-02-15T00:06:14;-5.80;62.30
67557;DHT22;54387;53.526;49.300;2023-02-15T00:08:40;-5.80;62.30
67557;DHT22;54387;53.526;49.300;2023-02-15T00:11:11;-5.80;62.30
67557;DHT22;54387;53.526;49.300;2023-02-15T00:13:37;-5.80;62.30
67557;DHT22;54387;53.526;49.300;2023-02-15T00:16:07;-5.80;62.20
67557;DHT22;54387;53.526;49.300;2023-02-15T00:18:33;-5.80;62.20
67557;DHT22;54387;53.526;49.300;2023-02-15T00:21:03;-5.80;62.20
67557;DHT22;54387;53.526;49.300;2023-02-15T00:23:29;-5.80;62.30
67557;DHT22;54387;53.526;49.300;2023-02-15T00:26:05;-5.90;62.30
67557;DHT22;54387;53.526;49.300;2023-02-15T00:28:32;-5.80;62.30
67557;DHT22;54387;53.526;49.300;2023-02-15T00:31:02;-5.80;62.30
67557;DHT22;54387;53.526;49.300;2023-02-15T00:33:28;-5.80;62.20
67557;DHT22;54387;53.526;49.300;2023-02-15T00:35:57;-5.80;62.10
67557;DHT22;54387;53.526;49.300;2023-02-15T00:38:24;-5.80;62.10
67557;DHT22;54387;53.526;49.300;2023-02-15T00:40:57;-5.90;62.00
67557;DHT22;54387;53.526;49.300;2023-02-15T00:43:24;-5.90;62.10
67557;DHT22;54387;53.526;49.300;2023-02-15T00:45:50;-5.90;62.20
67557;DHT22;54387;53.526;49.300;2023-02-15T00:48:17;-5.90;62.30
67557;DHT22;54387;53.526;49.300;2023-02-15T00:50:46;-5.90;62.20
67557;DHT22;54387;53.526;49.300;2023-02-15T00:53:12;-6.00;62.20
67557;DHT22;54387;53.526;49.300;2023-02-15T00:55:38;-6.00;62.30
67557;DHT22;54387;53.526;49.300;2023-02-15T00:58:06;-6.00;62.30
67557;DHT22;54387;53.526;49.300;2023-02-15T01:00:32;-6.00;62.40
67557;DHT22;54387;53.526;49.300;2023-02-15T01:02:58;-5.90;62.40
67557;DHT22;54387;53.526;49.300;2023-02-15T01:05:24;-5.90;62.40
67557;DHT22;54387;53.526;49.300;2023-02-15T01:07:50;-5.90;62.30
67557;DHT22;54387;53.526;49.300;2023-02-15T01:10:16;-6.00;62.30
67557;DHT22;54387;53.526;49.300;2023-02-15T01:12:42;-6.00;62.20
67557;DHT22;54387;53.526;49.300;2023-02-15T01:15:09;-6.10;62.80
67557;DHT22;54387;53.526;49.300;2023-02-15T01:17:35;-6.20;62.20
67557;DHT22;54387;53.526;49.300;2023-02-15T01:20:01;-6.20;62.30
67557;DHT22;54387;53.526;49.300;2023-02-15T01:22:27;-6.20;62.50
67557;DHT22;54387;53.526;49.300;2023-02-15T01:24:53;-6.30;62.40
67557;DHT22;54387;53.526;49.300;2023-02-15T01:27:19;-6.30;62.40
67557;DHT22;54387;53.526;49.300;2023-02-15T01:29:45;-6.30;62.50
67557;DHT22;54387;53.526;49.300;2023-02-15T01:32:11;-6.30;62.70
67557;DHT22;54387;53.526;49.300;2023-02-15T01:34:37;-6.30;62.60
67557;DHT22;54387;53.526;49.300;2023-02-15T01:37:04;-6.30;62.60
67557;DHT22;54387;53.526;49.300;2023-02-15T01:39:30;-6.30;63.10
67557;DHT22;54387;53.526;49.300;2023-02-15T01:41:56;-6.30;62.60
67557;DHT22;54387;53.526;49.300;2023-02-15T01:47:07;-6.30;62.60
67557;DHT22;54387;53.526;49.300;2023-02-15T01:49:34;-6.40;62.30
67557;DHT22;54387;53.526;49.300;2023-02-15T01:52:00;-6.40;62.40
67557;DHT22;54387;53.526;49.300;2023-02-15T01:54:31;-6.40;62.50
67557;DHT22;54387;53.526;49.300;2023-02-15T01:57:04;-6.40;62.60
67557;DHT22;54387;53.526;49.300;2023-02-15T01:59:31;-6.40;62.50
67557;DHT22;54387;53.526;49.300;2023-02-15T02:01:59;-6.30;62.60
67557;DHT22;54387;53.526;49.300;2023-02-15T02:04:29;-6.30;62.60
67557;DHT22;54387;53.526;49.300;2023-02-15T02:06:56;-6.20;62.60
67557;DHT22;54387;53.526;49.300;2023-02-15T02:09:23;-6.20;62.60
67557;DHT22;54387;53.526;49.300;2023-02-15T02:11:49;-6.20;62.60
67557;DHT22;54387;53.526;49.300;2023-02-15T02:14:15;-6.20;62.40
67557;DHT22;54387;53.526;49.300;2023-02-15T02:16:48;-6.20;62.50
67557;DHT22;54387;53.526;49.300;2023-02-15T02:24:49;-6.20;62.50
67557;DHT22;54387;53.526;49.300;2023-02-15T02:35:11;-6.10;62.50
67557;DHT22;54387;53.526;49.300;2023-02-15T02:38:15;-6.10;62.50
67557;DHT22;54387;53.526;49.300;2023-02-15T02:43:10;-6.10;62.50
67557;DHT22;54387;53.526;49.300;2023-02-15T02:45:40;-6.20;62.50
67557;DHT22;54387;53.526;49.300;2023-02-15T02:48:12;-6.20;62.60
67557;DHT22;54387;53.526;49.300;2023-02-15T02:50:40;-6.20;62.60
67557;DHT22;54387;53.526;49.300;2023-02-15T02:53:06;-6.30;62.40
67557;DHT22;54387;53.526;49.300;2023-02-15T02:58:05;-6.30;62.60
67557;DHT22;54387;53.526;49.300;2023-02-15T03:00:42;-6.30;62.60
67557;DHT22;54387;53.526;49.300;2023-02-15T03:03:11;-6.30;62.60
67557;DHT22;54387;53.526;49.300;2023-02-15T03:05:41;-6.20;62.80
67557;DHT22;54387;53.526;49.300;2023-02-15T03:08:10;-6.20;62.50
67557;DHT22;54387;53.526;49.300;2023-02-15T03:10:38;-6.20;62.60
67557;DHT22;54387;53.526;49.300;2023-02-15T03:13:05;-6.20;62.60
67557;DHT22;54387;53.526;49.300;2023-02-15T03:15:34;-6.20;62.60
67557;DHT22;54387;53.526;49.300;2023-02-15T03:18:22;-6.20;62.70
67557;DHT22;54387;53.526;49.300;2023-02-15T03:20:48;-6.20;62.80
67557;DHT22;54387;53.526;49.300;2023-02-15T03:23:20;-6.10;62.80
67557;DHT22;54387;53.526;49.300;2023-02-15T03:25:52;-6.00;62.80
67557;DHT22;54387;53.526;49.300;2023-02-15T03:31:17;-6.00;62.70
67557;DHT22;54387;53.526;49.300;2023-02-15T03:33:49;-6.10;62.60
67557;DHT22;54387;53.526;49.300;2023-02-15T03:36:25;-6.10;62.70
67557;DHT22;54387;53.526;49.300;2023-02-15T03:38:55;-6.10;62.70
67557;DHT22;54387;53.526;49.300;2023-02-15T03:41:26;-6.20;62.70
67557;DHT22;54387;53.526;49.300;2023-02-15T03:43:54;-6.20;62.90
67557;DHT22;54387;53.526;49.300;2023-02-15T03:49:15;-6.30;62.90
67557;DHT22;54387;53.526;49.300;2023-02-15T03:51:40;-6.30;62.90
67557;DHT22;54387;53.526;49.300;2023-02-15T03:54:08;-6.30;63.50
67557;DHT22;54387;53.526;49.300;2023-02-15T03:56:36;-6.20;63.00
67557;DHT22;54387;53.526;49.300;2023-02-15T03:59:03;-6.20;63.00
67557;DHT22;54387;53.526;49.300;2023-02-15T04:06:55;-6.20;63.00
67557;DHT22;54387;53.526;49.300;2023-02-15T04:09:21;-6.20;62.90
67557;DHT22;54387;53.526;49.300;2023-02-15T04:12:05;-6.20;62.90
67557;DHT22;54387;53.526;49.300;2023-02-15T04:14:32;-6.20;62.90
67557;DHT22;54387;53.526;49.300;2023-02-15T04:17:16;-6.20;62.90
67557;DHT22;54387;53.526;49.300;2023-02-15T04:19:42;-6.20;62.90
67557;DHT22;54387;53.526;49.300;2023-02-15T04:22:27;-6.20;63.00
67557;DHT22;54387;53.526;49.300;2023-02-15T04:25:12;-6.10;63.00
67557;DHT22;54387;53.526;49.300;2023-02-15T04:27:39;-6.10;62.90
67557;DHT22;54387;53.526;49.300;2023-02-15T04:30:05;-6.10;62.90
67557;DHT22;54387;53.526;49.300;2023-02-15T04:32:31;-6.10;62.80
67557;DHT22;54387;53.526;49.300;2023-02-15T04:34:58;-6.20;62.80
67557;DHT22;54387;53.526;49.300;2023-02-15T04:37:24;-6.20;62.90
67557;DHT22;54387;53.526;49.300;2023-02-15T04:39:50;-6.20;62.90
67557;DHT22;54387;53.526;49.300;2023-02-15T04:42:16;-6.20;62.90
67557;DHT22;54387;53.526;49.300;2023-02-15T04:44:42;-6.20;62.90
67557;DHT22;54387;53.526;49.300;2023-02-15T04:47:08;-6.20;62.90
67557;DHT22;54387;53.526;49.300;2023-02-15T04:49:34;-6.10;62.90
67557;DHT22;54387;53.526;49.300;2023-02-15T04:52:00;-6.10;63.00
67557;DHT22;54387;53.526;49.300;2023-02-15T04:54:26;-6.10;62.90
67557;DHT22;54387;53.526;49.300;2023-02-15T04:56:52;-6.00;62.90
67557;DHT22;54387;53.526;49.300;2023-02-15T04:59:18;-6.10;62.70
67557;DHT22;54387;53.526;49.300;2023-02-15T05:01:44;-6.10;62.70
67557;DHT22;54387;53.526;49.300;2023-02-15T05:04:10;-6.10;62.60
67557;DHT22;54387;53.526;49.300;2023-02-15T05:06:36;-6.10;62.50
67557;DHT22;54387;53.526;49.300;2023-02-15T05:09:04;-6.20;62.70
67557;DHT22;54387;53.526;49.300;2023-02-15T05:11:30;-6.10;62.90
67557;DHT22;54387;53.526;49.300;2023-02-15T05:13:56;-6.10;62.90
67557;DHT22;54387;53.526;49.300;2023-02-15T05:16:22;-6.00;62.90
67557;DHT22;54387;53.526;49.300;2023-02-15T05:18:48;-6.00;62.80
67557;DHT22;54387;53.526;49.300;2023-02-15T05:21:14;-6.00;62.70
67557;DHT22;54387;53.526;49.300;2023-02-15T05:23:42;-6.00;62.60
67557;DHT22;54387;53.526;49.300;2023-02-15T05:26:11;-6.00;62.60
67557;DHT22;54387;53.526;49.300;2023-02-15T05:28:56;-6.00;62.70
67557;DHT22;54387;53.526;49.300;2023-02-15T05:31:22;-5.90;62.80
67557;DHT22;54387;53.526;49.300;2023-02-15T05:33:48;-5.90;62.90
67557;DHT22;54387;53.526;49.300;2023-02-15T05:36:14;-5.80;62.90
67557;DHT22;54387;53.526;49.300;2023-02-15T05:38:40;-5.80;62.80
67557;DHT22;54387;53.526;49.300;2023-02-15T05:41:07;-5.70;62.70
67557;DHT22;54387;53.526;49.300;2023-02-15T05:43:33;-5.60;62.80
67557;DHT22;54387;53.526;49.300;2023-02-15T05:45:59;-5.60;62.70
67557;DHT22;54387;53.526;49.300;2023-02-15T05:48:26;-5.50;62.50
67557;DHT22;54387;53.526;49.300;2023-02-15T05:53:25;-5.50;62.30
67557;DHT22;54387;53.526;49.300;2023-02-15T05:55:52;-5.40;62.40
67557;DHT22;54387;53.526;49.300;2023-02-15T05:58:19;-5.40;62.30
67557;DHT22;54387;53.526;49.300;2023-02-15T06:00:45;-5.40;62.30
67557;DHT22;54387;53.526;49.300;2023-02-15T06:03:11;-5.30;62.90
67557;DHT22;54387;53.526;49.300;2023-02-15T06:05:37;-5.30;62.30
67557;DHT22;54387;53.526;49.300;2023-02-15T06:08:03;-5.30;62.10
67557;DHT22;54387;53.526;49.300;2023-02-15T06:10:29;-5.30;62.10
67557;DHT22;54387;53.526;49.300;2023-02-15T06:12:55;-5.30;62.00
67557;DHT22;54387;53.526;49.300;2023-02-15T06:15:21;-5.30;61.90
67557;DHT22;54387;53.526;49.300;2023-02-15T06:17:47;-5.30;62.10
67557;DHT22;54387;53.526;49.300;2023-02-15T06:20:13;-5.20;62.20
67557;DHT22;54387;53.526;49.300;2023-02-15T06:22:39;-5.10;61.80
67557;DHT22;54387;53.526;49.300;2023-02-15T06:25:05;-5.10;61.60
67557;DHT22;54387;53.526;49.300;2023-02-15T06:27:32;-5.10;61.70
67557;DHT22;54387;53.526;49.300;2023-02-15T06:29:58;-5.00;61.80
67557;DHT22;54387;53.526;49.300;2023-02-15T06:32:24;-5.00;61.70
67557;DHT22;54387;53.526;49.300;2023-02-15T06:34:50;-5.00;61.30
67557;DHT22;54387;53.526;49.300;2023-02-15T06:37:16;-5.00;61.40
67557;DHT22;54387;53.526;49.300;2023-02-15T06:39:42;-5.00;61.40
67557;DHT22;54387;53.526;49.300;2023-02-15T06:42:08;-4.90;61.40
67557;DHT22;54387;53.526;49.300;2023-02-15T06:44:34;-4.90;61.40
67557;DHT22;54387;53.526;49.300;2023-02-15T06:47:00;-4.90;61.60
67557;DHT22;54387;53.526;49.300;2023-02-15T06:49:26;-4.80;61.50
67557;DHT22;54387;53.526;49.300;2023-02-15T06:51:52;-4.70;61.50
67557;DHT22;54387;53.526;49.300;2023-02-15T06:54:18;-4.60;61.40
67557;DHT22;54387;53.526;49.300;2023-02-15T06:56:44;-4.50;61.40
67557;DHT22;54387;53.526;49.300;2023-02-15T06:59:10;-4.40;61.20
67557;DHT22;54387;53.526;49.300;2023-02-15T07:01:36;-4.30;60.90
67557;DHT22;54387;53.526;49.300;2023-02-15T07:04:03;-4.20;60.90
67557;DHT22;54387;53.526;49.300;2023-02-15T07:06:33;-4.20;60.90
67557;DHT22;54387;53.526;49.300;2023-02-15T07:08:59;-4.10;61.20
67557;DHT22;54387;53.526;49.300;2023-02-15T07:11:25;-3.90;61.00
67557;DHT22;54387;53.526;49.300;2023-02-15T07:14:10;-3.80;60.90
67557;DHT22;54387;53.526;49.300;2023-02-15T07:16:36;-3.70;60.90
67557;DHT22;54387;53.526;49.300;2023-02-15T07:19:02;-3.60;60.70
67557;DHT22;54387;53.526;49.300;2023-02-15T07:21:28;-3.50;60.60
67557;DHT22;54387;53.526;49.300;2023-02-15T07:23:57;-3.50;60.30
67557;DHT22;54387;53.526;49.300;2023-02-15T07:26:24;-3.40;60.20
67557;DHT22;54387;53.526;49.300;2023-02-15T07:28:50;-3.40;60.10
67557;DHT22;54387;53.526;49.300;2023-02-15T07:31:16;-3.40;60.10
67557;DHT22;54387;53.526;49.300;2023-02-15T07:33:42;-3.40;60.20
67557;DHT22;54387;53.526;49.300;2023-02-15T07:36:08;-3.40;59.60
67557;DHT22;54387;53.526;49.300;2023-02-15T07:38:37;-3.40;59.40
67557;DHT22;54387;53.526;49.300;2023-02-15T07:41:05;-3.40;59.30
67557;DHT22;54387;53.526;49.300;2023-02-15T07:43:35;-3.40;59.30
67557;DHT22;54387;53.526;49.300;2023-02-15T07:46:03;-3.40;59.30
67557;DHT22;54387;53.526;49.300;2023-02-15T07:48:30;-3.30;59.30
67557;DHT22;54387;53.526;49.300;2023-02-15T07:50:59;-3.30;58.90
67557;DHT22;54387;53.526;49.300;2023-02-15T07:53:25;-3.30;58.60
67557;DHT22;54387;53.526;49.300;2023-02-15T07:55:52;-3.40;57.90
67557;DHT22;54387;53.526;49.300;2023-02-15T07:58:18;-3.40;58.00
67557;DHT22;54387;53.526;49.300;2023-02-15T08:00:44;-3.50;57.90
67557;DHT22;54387;53.526;49.300;2023-02-15T08:03:23;-3.60;57.50
67557;DHT22;54387;53.526;49.300;2023-02-15T08:05:55;-3.60;58.10
67557;DHT22;54387;53.526;49.300;2023-02-15T08:08:22;-3.60;57.90
67557;DHT22;54387;53.526;49.300;2023-02-15T08:11:01;-3.60;57.80
67557;DHT22;54387;53.526;49.300;2023-02-15T08:13:47;-3.60;58.20
67557;DHT22;54387;53.526;49.300;2023-02-15T08:16:23;-3.50;58.50
67557;DHT22;54387;53.526;49.300;2023-02-15T08:18:49;-3.40;58.60
67557;DHT22;54387;53.526;49.300;2023-02-15T08:21:15;-3.20;58.30
67557;DHT22;54387;53.526;49.300;2023-02-15T08:23:41;-3.20;57.50
67557;DHT22;54387;53.526;49.300;2023-02-15T08:26:07;-3.20;57.50
67557;DHT22;54387;53.526;49.300;2023-02-15T08:28:36;-3.10;58.20
67557;DHT22;54387;53.526;49.300;2023-02-15T08:33:32;-2.80;57.90
67557;DHT22;54387;53.526;49.300;2023-02-15T08:36:01;-2.80;56.80
67557;DHT22;54387;53.526;49.300;2023-02-15T08:38:28;-2.90;56.20
67557;DHT22;54387;53.526;49.300;2023-02-15T08:40:54;-3.00;56.30
67557;DHT22;54387;53.526;49.300;2023-02-15T08:43:20;-3.00;56.80
67557;DHT22;54387;53.526;49.300;2023-02-15T08:45:46;-3.00;56.50
67557;DHT22;54387;53.526;49.300;2023-02-15T08:48:12;-3.00;56.30
67557;DHT22;54387;53.526;49.300;2023-02-15T08:50:38;-3.00;56.30
67557;DHT22;54387;53.526;49.300;2023-02-15T08:53:04;-3.00;56.30
67557;DHT22;54387;53.526;49.300;2023-02-15T08:55:30;-3.00;55.90
67557;DHT22;54387;53.526;49.300;2023-02-15T08:57:56;-3.00;56.40
67557;DHT22;54387;53.526;49.300;2023-02-15T09:00:22;-2.90;57.00
67557;DHT22;54387;53.526;49.300;2023-02-15T09:02:48;-2.80;56.90
67557;DHT22;54387;53.526;49.300;2023-02-15T09:05:14;-2.80;56.80
67557;DHT22;54387;53.526;49.300;2023-02-15T09:07:40;-2.70;57.00
67557;DHT22;54387;53.526;49.300;2023-02-15T09:10:07;-2.70;56.20
67557;DHT22;54387;53.526;49.300;2023-02-15T09:12:33;-2.70;56.30
67557;DHT22;54387;53.526;49.300;2023-02-15T09:14:59;-2.70;56.50
67557;DHT22;54387;53.526;49.300;2023-02-15T09:17:25;-2.70;56.30
67557;DHT22;54387;53.526;49.300;2023-02-15T09:19:51;-2.70;56.20
67557;DHT22;54387;53.526;49.300;2023-02-15T09:22:17;-2.70;56.10
67557;DHT22;54387;53.526;49.300;2023-02-15T09:24:43;-2.80;56.20
67557;DHT22;54387;53.526;49.300;2023-02-15T09:27:09;-2.70;56.50
67557;DHT22;54387;53.526;49.300;2023-02-15T09:29:35;-2.70;56.30
67557;DHT22;54387;53.526;49.300;2023-02-15T09:32:01;-2.70;56.10
67557;DHT22;54387;53.526;49.300;2023-02-15T09:34:27;-2.70;56.20
67557;DHT22;54387;53.526;49.300;2023-02-15T09:36:53;-2.70;55.90
67557;DHT22;54387;53.526;49.300;2023-02-15T09:39:23;-2.70;55.80
67557;DHT22;54387;53.526;49.300;2023-02-15T09:57:20;-1.90;54.70
67557;DHT22;54387;53.526;49.300;2023-02-15T10:10:36;-1.00;53.40
67557;DHT22;54387;53.526;49.300;2023-02-15T10:13:17;-0.80;53.00
67557;DHT22;54387;53.526;49.300;2023-02-15T10:18:29;-0.40;51.40
67557;DHT22;54387;53.526;49.300;2023-02-15T10:21:01;-0.20;51.70
67557;DHT22;54387;53.526;49.300;2023-02-15T10:26:17;0.50;52.30
67557;DHT22;54387;53.526;49.300;2023-02-15T10:31:59;0.80;50.80
67557;DHT22;54387;53.526;49.300;2023-02-15T10:36:53;1.10;49.30
67557;DHT22;54387;53.526;49.300;2023-02-15T10:39:32;1.30;49.80
67557;DHT22;54387;53.526;49.300;2023-02-15T10:42:16;1.50;49.50
67557;DHT22;54387;53.526;49.300;2023-02-15T11:00:15;1.60;46.10
67557;DHT22;54387;53.526;49.300;2023-02-15T11:06:00;1.10;46.20
67557;DHT22;54387;53.526;49.300;2023-02-15T11:08:04;0.80;46.50
67557;DHT22;54387;53.526;49.300;2023-02-15T11:13:11;0.60;47.70
67557;DHT22;54387;53.526;49.300;2023-02-15T11:15:40;0.50;47.60
67557;DHT22;54387;53.526;49.300;2023-02-15T11:20:45;0.40;47.80
67557;DHT22;54387;53.526;49.300;2023-02-15T11:23:14;0.40;48.00
67557;DHT22;54387;53.526;49.300;2023-02-15T11:25:43;0.30;47.60
67557;DHT22;54387;53.526;49.300;2023-02-15T11:28:14;0.20;47.50
67557;DHT22;54387;53.526;49.300;2023-02-15T11:30:43;0.10;48.20
67557;DHT22;54387;53.526;49.300;2023-02-15T11:33:46;0.00;48.10
67557;DHT22;54387;53.526;49.300;2023-02-15T11:36:09;-0.10;48.60
67557;DHT22;54387;53.526;49.300;2023-02-15T11:38:37;-0.10;49.20
67557;DHT22;54387;53.526;49.300;2023-02-15T11:41:13;-0.10;48.80
67557;DHT22;54387;53.526;49.300;2023-02-15T11:43:53;-0.30;49.20
67557;DHT22;54387;53.526;49.300;2023-02-15T11:46:20;-0.30;49.30
67557;DHT22;54387;53.526;49.300;2023-02-15T11:48:47;-0.50;48.70
67557;DHT22;54387;53.526;49.300;2023-02-15T11:51:14;-0.80;49.20
67557;DHT22;54387;53.526;49.300;2023-02-15T11:53:41;-0.90;49.90
67557;DHT22;54387;53.526;49.300;2023-02-15T11:56:16;-1.00;50.40
67557;DHT22;54387;53.526;49.300;2023-02-15T11:58:51;-0.90;50.50
67557;DHT22;54387;53.526;49.300;2023-02-15T12:01:24;-1.10;50.30
67557;DHT22;54387;53.526;49.300;2023-02-15T12:03:54;-1.20;50.30
67557;DHT22;54387;53.526;49.300;2023-02-15T12:06:25;-1.40;50.60
67557;DHT22;54387;53.526;49.300;2023-02-15T12:09:17;-1.60;50.90
67557;DHT22;54387;53.526;49.300;2023-02-15T12:11:39;-1.80;51.40
67557;DHT22;54387;53.526;49.300;2023-02-15T12:14:07;-1.90;51.70
67557;DHT22;54387;53.526;49.300;2023-02-15T12:16:39;-1.90;52.00
67557;DHT22;54387;53.526;49.300;2023-02-15T12:19:09;-2.00;52.20
67557;DHT22;54387;53.526;49.300;2023-02-15T12:21:39;-2.10;52.30
67557;DHT22;54387;53.526;49.300;2023-02-15T12:26:42;-2.10;52.80
67557;DHT22;54387;53.526;49.300;2023-02-15T12:29:15;-2.30;52.60
67557;DHT22;54387;53.526;49.300;2023-02-15T12:31:45;-2.40;53.00
67557;DHT22;54387;53.526;49.300;2023-02-15T12:34:21;-2.60;53.00
67557;DHT22;54387;53.526;49.300;2023-02-15T12:36:49;-2.80;54.30
67557;DHT22;54387;53.526;49.300;2023-02-15T12:39:17;-3.00;53.80
67557;DHT22;54387;53.526;49.300;2023-02-15T12:41:46;-3.10;54.10
67557;DHT22;54387;53.526;49.300;2023-02-15T12:44:30;-3.20;54.30
67557;DHT22;54387;53.526;49.300;2023-02-15T12:49:23;-3.20;54.60
67557;DHT22;54387;53.526;49.300;2023-02-15T12:51:50;-3.30;54.60
67557;DHT22;54387;53.526;49.300;2023-02-15T12:54:38;-3.30;54.80
67557;DHT22;54387;53.526;49.300;2023-02-15T12:57:14;-3.40;54.90
67557;DHT22;54387;53.526;49.300;2023-02-15T12:59:50;-3.60;55.00
67557;DHT22;54387;53.526;49.300;2023-02-15T13:02:27;-3.70;55.30
67557;DHT22;54387;53.526;49.300;2023-02-15T13:04:54;-3.90;55.60
67557;DHT22;54387;53.526;49.300;2023-02-15T13:07:21;-4.00;55.90
67557;DHT22;54387;53.526;49.300;2023-02-15T13:09:48;-4.10;56.20
67557;DHT22;54387;53.526;49.300;2023-02-15T13:12:21;-4.10;56.40
67557;DHT22;54387;53.526;49.300;2023-02-15T13:14:48;-4.20;56.40
67557;DHT22;54387;53.526;49.300;2023-02-15T13:17:17;-4.20;56.70
67557;DHT22;54387;53.526;49.300;2023-02-15T13:19:45;-4.20;56.80
67557;DHT22;54387;53.526;49.300;2023-02-15T13:22:16;-4.20;57.00
67557;DHT22;54387;53.526;49.300;2023-02-15T13:24:46;-4.30;57.10
67557;DHT22;54387;53.526;49.300;2023-02-15T13:27:16;-4.40;57.30
67557;DHT22;54387;53.526;49.300;2023-02-15T13:29:44;-4.50;57.40
67557;DHT22;54387;53.526;49.300;2023-02-15T13:35:02;-4.70;57.70
67557;DHT22;54387;53.526;49.300;2023-02-15T13:40:04;-4.80;58.50
67557;DHT22;54387;53.526;49.300;2023-02-15T13:43:37;-4.80;58.60
67557;DHT22;54387;53.526;49.300;2023-02-15T13:45:34;-4.90;58.60
67557;DHT22;54387;53.526;49.300;2023-02-15T13:55:47;-5.10;59.30
67557;DHT22;54387;53.526;49.300;2023-02-15T14:03:19;-5.20;60.00
67557;DHT22;54387;53.526;49.300;2023-02-15T14:06:05;-5.10;60.10
67557;DHT22;54387;53.526;49.300;2023-02-15T14:08:57;-5.10;60.20
67557;DHT22;54387;53.526;49.300;2023-02-15T14:16:27;-5.40;60.40
67557;DHT22;54387;53.526;49.300;2023-02-15T14:19:05;-5.40;60.60
67557;DHT22;54387;53.526;49.300;2023-02-15T14:21:37;-5.40;60.70
67557;DHT22;54387;53.526;49.300;2023-02-15T14:26:59;-5.40;60.90
67557;DHT22;54387;53.526;49.300;2023-02-15T14:32:10;-5.50;61.10
67557;DHT22;54387;53.526;49.300;2023-02-15T14:34:54;-5.50;61.10
67557;DHT22;54387;53.526;49.300;2023-02-15T14:37:29;-5.50;61.20
67557;DHT22;54387;53.526;49.300;2023-02-15T14:45:35;-5.60;61.50
67557;DHT22;54387;53.526;49.300;2023-02-15T14:48:23;-5.60;61.50
67557;DHT22;54387;53.526;49.300;2023-02-15T14:50:51;-5.60;61.60
67557;DHT22;54387;53.526;49.300;2023-02-15T14:55:43;-5.60;61.70
67557;DHT22;54387;53.526;49.300;2023-02-15T14:58:12;-5.60;61.80
67557;DHT22;54387;53.526;49.300;2023-02-15T15:00:39;-5.60;61.80
67557;DHT22;54387;53.526;49.300;2023-02-15T15:03:23;-5.60;61.80
67557;DHT22;54387;53.526;49.300;2023-02-15T15:05:53;-5.70;61.80
67557;DHT22;54387;53.526;49.300;2023-02-15T15:08:26;-5.70;62.00
67557;DHT22;54387;53.526;49.300;2023-02-15T15:10:54;-5.70;62.10
67557;DHT22;54387;53.526;49.300;2023-02-15T15:15:56;-5.80;62.10
67557;DHT22;54387;53.526;49.300;2023-02-15T15:18:43;-5.80;62.20
67557;DHT22;54387;53.526;49.300;2023-02-15T15:21:10;-5.80;62.10
67557;DHT22;54387;53.526;49.300;2023-02-15T15:23:38;-5.80;62.10
67557;DHT22;54387;53.526;49.300;2023-02-15T15:26:21;-5.80;62.10
67557;DHT22;54387;53.526;49.300;2023-02-15T15:31:23;-5.90;62.00
67557;DHT22;54387;53.526;49.300;2023-02-15T15:34:05;-6.00;62.10
67557;DHT22;54387;53.526;49.300;2023-02-15T15:45:02;-6.10;62.30
67557;DHT22;54387;53.526;49.300;2023-02-15T15:49:42;-6.00;62.50
67557;DHT22;54387;53.526;49.300;2023-02-15T15:52:12;-6.00;62.50
67557;DHT22;54387;53.526;49.300;2023-02-15T15:54:39;-6.00;62.50
67557;DHT22;54387;53.526;49.300;2023-02-15T15:57:05;-6.00;62.50
67557;DHT22;54387;53.526;49.300;2023-02-15T15:59:37;-6.00;62.50
67557;DHT22;54387;53.526;49.300;2023-02-15T16:02:15;-6.00;62.50
67557;DHT22;54387;53.526;49.300;2023-02-15T16:04:42;-6.00;62.50
67557;DHT22;54387;53.526;49.300;2023-02-15T16:12:19;-6.00;62.50
67557;DHT22;54387;53.526;49.300;2023-02-15T16:14:45;-6.10;62.50
67557;DHT22;54387;53.526;49.300;2023-02-15T16:17:24;-6.10;62.50
67557;DHT22;54387;53.526;49.300;2023-02-15T16:19:51;-6.10;62.60
67557;DHT22;54387;53.526;49.300;2023-02-15T16:22:21;-6.10;62.60
67557;DHT22;54387;53.526;49.300;2023-02-15T16:24:56;-6.10;62.70
67557;DHT22;54387;53.526;49.300;2023-02-15T16:29:56;-6.00;62.90
67557;DHT22;54387;53.526;49.300;2023-02-15T16:32:23;-6.00;62.80
67557;DHT22;54387;53.526;49.300;2023-02-15T16:35:00;-6.00;62.70
67557;DHT22;54387;53.526;49.300;2023-02-15T16:37:36;-6.00;62.70
67557;DHT22;54387;53.526;49.300;2023-02-15T16:40:02;-6.00;62.80
67557;DHT22;54387;53.526;49.300;2023-02-15T16:42:29;-6.00;62.80
67557;DHT22;54387;53.526;49.300;2023-02-15T16:45:04;-6.00;62.80
67557;DHT22;54387;53.526;49.300;2023-02-15T16:47:32;-6.00;62.90
67557;DHT22;54387;53.526;49.300;2023-02-15T16:50:00;-6.00;62.80
67557;DHT22;54387;53.526;49.300;2023-02-15T16:52:27;-6.00;62.90
67557;DHT22;54387;53.526;49.300;2023-02-15T16:54:58;-6.00;62.80
67557;DHT22;54387;53.526;49.300;2023-02-15T16:57:26;-5.90;62.90
67557;DHT22;54387;53.526;49.300;2023-02-15T16:59:53;-5.90;62.90
67557;DHT22;54387;53.526;49.300;2023-02-15T17:02:24;-5.90;62.90
67557;DHT22;54387;53.526;49.300;2023-02-15T17:10:25;-5.80;62.70
67557;DHT22;54387;53.526;49.300;2023-02-15T17:12:52;-5.80;62.90
67557;DHT22;54387;53.526;49.300;2023-02-15T17:15:25;-5.80;62.70
67557;DHT22;54387;53.526;49.300;2023-02-15T17:17:52;-5.80;62.60
67557;DHT22;54387;53.526;49.300;2023-02-15T17:20:18;-5.80;62.60
67557;DHT22;54387;53.526;49.300;2023-02-15T17:22:44;-5.80;62.70
67557;DHT22;54387;53.526;49.300;2023-02-15T17:25:18;-5.80;62.80
67557;DHT22;54387;53.526;49.300;2023-02-15T17:27:49;-5.80;62.80
67557;DHT22;54387;53.526;49.300;2023-02-15T17:30:26;-5.80;62.90
67557;DHT22;54387;53.526;49.300;2023-02-15T17:32:56;-5.80;62.90
67557;DHT22;54387;53.526;49.300;2023-02-15T17:35:24;-5.80;62.90
67557;DHT22;54387;53.526;49.300;2023-02-15T17:37:59;-5.70;62.90
67557;DHT22;54387;53.526;49.300;2023-02-15T17:40:27;-5.70;62.90
67557;DHT22;54387;53.526;49.300;2023-02-15T17:42:53;-5.70;62.90
67557;DHT22;54387;53.526;49.300;2023-02-15T17:45:19;-5.70;63.00
67557;DHT22;54387;53.526;49.300;2023-02-15T17:47:46;-5.70;62.90
67557;DHT22;54387;53.526;49.300;2023-02-15T17:50:23;-5.70;63.00
67557;DHT22;54387;53.526;49.300;2023-02-15T17:52:53;-5.60;63.00
67557;DHT22;54387;53.526;49.300;2023-02-15T17:55:21;-5.60;62.80
67557;DHT22;54387;53.526;49.300;2023-02-15T17:58:10;-5.60;62.80
67557;DHT22;54387;53.526;49.300;2023-02-15T18:00:38;-5.60;62.80
67557;DHT22;54387;53.526;49.300;2023-02-15T18:03:24;-5.60;62.80
67557;DHT22;54387;53.526;49.300;2023-02-15T18:06:09;-5.60;62.70
67557;DHT22;54387;53.526;49.300;2023-02-15T18:08:53;-5.60;62.70
67557;DHT22;54387;53.526;49.300;2023-02-15T18:11:38;-5.60;62.60
67557;DHT22;54387;53.526;49.300;2023-02-15T18:14:05;-5.60;62.70
67557;DHT22;54387;53.526;49.300;2023-02-15T18:16:33;-5.60;62.70
67557;DHT22;54387;53.526;49.300;2023-02-15T18:18:59;-5.60;62.70
67557;DHT22;54387;53.526;49.300;2023-02-15T18:21:26;-5.60;62.80